createdAt,value
2022-10-13T00:02:30.778Z,13.20
2022-10-13T00:05:01.690Z,13.10
2022-10-13T00:07:33.225Z,13.00
2022-10-13T00:10:04.702Z,13.10
2022-10-13T00:12:37.644Z,13.00
2022-10-13T00:15:10.156Z,13.00
2022-10-13T00:17:41.905Z,12.80
2022-10-13T00:20:13.037Z,13.00
2022-10-13T00:22:43.933Z,13.00
2022-10-13T00:25:14.876Z,13.00
2022-10-13T00:27:46.242Z,13.00
2022-10-13T00:30:17.324Z,13.00
2022-10-13T00:32:48.224Z,13.10
2022-10-13T00:35:19.118Z,13.10
2022-10-13T00:37:49.995Z,13.00
2022-10-13T00:40:20.878Z,12.90
2022-10-13T00:42:51.757Z,12.80
2022-10-13T00:45:26.608Z,12.70
2022-10-13T00:48:01.206Z,12.70
2022-10-13T00:50:40.347Z,12.70
2022-10-13T00:53:12.589Z,12.70
2022-10-13T00:55:46.277Z,12.70
2022-10-13T00:58:19.808Z,12.70
2022-10-13T01:00:53.033Z,12.60
2022-10-13T01:03:24.486Z,12.60
2022-10-13T01:06:00.455Z,12.50
2022-10-13T01:08:32.219Z,12.60
2022-10-13T01:11:05.843Z,12.60
2022-10-13T01:13:52.529Z,12.60
2022-10-13T01:17:14.509Z,12.70
2022-10-13T01:20:20.412Z,12.80
2022-10-13T01:23:50.259Z,12.60
2022-10-13T01:27:04.231Z,12.70
2022-10-13T01:30:06.052Z,12.60
2022-10-13T01:33:12.187Z,12.60
2022-10-13T01:35:56.798Z,12.60
2022-10-13T01:38:48.690Z,12.50
2022-10-13T01:41:33.594Z,12.50
2022-10-13T01:44:27.330Z,12.50
2022-10-13T01:47:00.303Z,12.40
2022-10-13T01:49:36.265Z,12.40
2022-10-13T01:52:13.494Z,12.40
2022-10-13T01:54:50.673Z,12.50
2022-10-13T01:57:41.712Z,12.60
2022-10-13T02:00:19.756Z,12.70
2022-10-13T02:03:17.457Z,12.70
2022-10-13T02:06:40.030Z,12.70
2022-10-13T02:09:41.675Z,12.80
2022-10-13T02:12:22.169Z,12.80
2022-10-13T02:14:55.262Z,12.80
2022-10-13T02:17:28.288Z,12.80
2022-10-13T02:20:00.026Z,12.90
2022-10-13T02:22:38.636Z,12.70
2022-10-13T02:25:09.940Z,12.70
2022-10-13T02:27:41.595Z,12.70
2022-10-13T02:30:23.326Z,12.60
2022-10-13T02:32:54.691Z,12.70
2022-10-13T02:35:25.780Z,12.80
2022-10-13T02:37:56.687Z,12.80
2022-10-13T02:40:27.945Z,12.90
2022-10-13T02:42:58.994Z,12.80
2022-10-13T02:45:29.881Z,12.80
2022-10-13T02:48:00.827Z,12.70
2022-10-13T02:50:32.011Z,12.70
2022-10-13T02:53:02.938Z,12.80
2022-10-13T02:55:33.847Z,12.80
2022-10-13T02:58:04.823Z,12.70
2022-10-13T03:00:35.789Z,12.80
2022-10-13T03:03:06.884Z,12.90
2022-10-13T03:05:37.892Z,12.90
2022-10-13T03:08:08.865Z,13.00
2022-10-13T03:10:39.805Z,13.00
2022-10-13T03:13:10.660Z,13.00
2022-10-13T03:15:41.584Z,13.10
2022-10-13T03:18:12.480Z,13.00
2022-10-13T03:20:43.443Z,12.90
2022-10-13T03:23:14.317Z,12.90
2022-10-13T03:25:45.205Z,12.90
2022-10-13T03:28:16.179Z,12.90
2022-10-13T03:30:47.248Z,12.90
2022-10-13T03:33:18.230Z,13.00
2022-10-13T03:35:49.098Z,13.00
2022-10-13T03:38:20.359Z,13.00
2022-10-13T03:40:51.317Z,13.00
2022-10-13T03:43:22.932Z,13.00
2022-10-13T03:46:01.715Z,13.00
2022-10-13T03:48:35.103Z,13.10
2022-10-13T03:51:12.854Z,13.10
2022-10-13T03:53:43.896Z,13.10
2022-10-13T03:56:17.726Z,13.20
2022-10-13T03:58:53.812Z,13.20
2022-10-13T04:01:28.111Z,13.10
2022-10-13T04:04:02.435Z,12.90
2022-10-13T04:06:33.327Z,12.80
2022-10-13T04:09:04.902Z,12.70
2022-10-13T04:11:35.810Z,12.90
2022-10-13T04:14:07.532Z,12.90
2022-10-13T04:16:40.519Z,12.80
2022-10-13T04:19:13.593Z,12.90
2022-10-13T04:21:44.818Z,12.90
2022-10-13T04:24:17.672Z,12.90
2022-10-13T04:26:48.539Z,12.90
2022-10-13T04:29:19.500Z,12.90
2022-10-13T04:31:50.410Z,12.90
2022-10-13T04:34:21.340Z,12.90
2022-10-13T04:36:52.234Z,12.80
2022-10-13T04:39:23.139Z,12.70
2022-10-13T04:41:54.036Z,12.70
2022-10-13T04:44:25.059Z,12.60
2022-10-13T04:46:55.955Z,12.60
2022-10-13T04:49:27.028Z,12.60
2022-10-13T04:51:58.195Z,12.60
2022-10-13T04:54:29.087Z,12.60
2022-10-13T04:56:59.934Z,12.60
2022-10-13T04:59:30.833Z,12.50
2022-10-13T05:02:03.307Z,12.60
2022-10-13T05:04:34.186Z,12.70
2022-10-13T05:07:17.477Z,12.60
2022-10-13T05:09:48.774Z,12.70
2022-10-13T05:12:20.007Z,12.70
2022-10-13T05:14:51.127Z,12.60
2022-10-13T05:17:22.033Z,12.50
2022-10-13T05:19:52.960Z,12.50
2022-10-13T05:22:24.485Z,12.30
2022-10-13T05:24:55.369Z,12.30
2022-10-13T05:27:26.385Z,12.40
2022-10-13T05:29:57.328Z,12.50
2022-10-13T05:32:28.343Z,12.60
2022-10-13T05:34:59.366Z,12.50
2022-10-13T05:37:30.241Z,12.60
2022-10-13T05:40:01.119Z,12.50
2022-10-13T05:42:32.399Z,12.50
2022-10-13T05:45:04.377Z,12.70
2022-10-13T05:47:35.316Z,12.80
2022-10-13T05:50:07.203Z,12.80
2022-10-13T05:52:38.256Z,12.90
2022-10-13T05:55:11.480Z,13.00
2022-10-13T05:57:48.536Z,13.00
2022-10-13T06:00:20.531Z,13.00
2022-10-13T06:03:18.232Z,13.00
2022-10-13T06:05:49.179Z,13.00
2022-10-13T06:08:20.205Z,12.80
2022-10-13T06:10:51.209Z,12.80
2022-10-13T06:13:22.103Z,12.90
2022-10-13T06:15:52.967Z,13.00
2022-10-13T06:18:24.197Z,13.00
2022-10-13T06:20:55.066Z,13.10
2022-10-13T06:23:26.032Z,13.20
2022-10-13T06:25:56.879Z,13.20
2022-10-13T06:28:28.091Z,13.20
2022-10-13T06:30:59.080Z,13.20
2022-10-13T06:33:29.966Z,13.20
2022-10-13T06:36:06.189Z,13.20
2022-10-13T06:38:37.108Z,13.20
2022-10-13T06:41:08.211Z,13.30
2022-10-13T06:43:40.579Z,13.30
2022-10-13T06:46:12.429Z,13.30
2022-10-13T06:48:43.415Z,13.20
2022-10-13T06:51:14.423Z,13.20
2022-10-13T06:53:45.620Z,13.20
2022-10-13T06:56:16.570Z,13.10
2022-10-13T06:58:48.305Z,13.10
2022-10-13T07:01:19.311Z,13.20
2022-10-13T07:03:51.668Z,13.30
2022-10-13T07:06:22.637Z,13.40
2022-10-13T07:08:53.635Z,13.30
2022-10-13T07:11:24.517Z,13.20
2022-10-13T07:13:55.537Z,13.40
2022-10-13T07:16:26.575Z,13.40
2022-10-13T07:18:57.503Z,13.40
2022-10-13T07:21:28.409Z,13.40
2022-10-13T07:23:59.390Z,13.50
2022-10-13T07:26:32.505Z,13.60
2022-10-13T07:29:03.516Z,13.60
2022-10-13T07:31:34.465Z,13.60
2022-10-13T07:34:06.728Z,13.40
2022-10-13T07:36:40.718Z,13.50
2022-10-13T07:39:11.674Z,13.40
2022-10-13T07:41:42.574Z,13.40
2022-10-13T07:44:13.637Z,13.50
2022-10-13T07:46:44.549Z,13.50
2022-10-13T07:49:16.385Z,13.40
2022-10-13T07:51:47.514Z,13.60
2022-10-13T07:54:21.584Z,13.70
2022-10-13T07:56:56.116Z,13.50
2022-10-13T07:59:27.180Z,13.60
2022-10-13T08:01:58.131Z,13.60
2022-10-13T08:04:34.564Z,13.60
2022-10-13T08:07:07.028Z,13.70
2022-10-13T08:09:38.254Z,13.70
2022-10-13T08:12:09.339Z,13.60
2022-10-13T08:14:40.482Z,13.60
2022-10-13T08:17:11.460Z,13.80
2022-10-13T08:19:42.376Z,14.00
2022-10-13T08:22:14.324Z,14.20
2022-10-13T08:24:45.452Z,14.30
2022-10-13T08:27:26.642Z,14.20
2022-10-13T08:30:10.467Z,14.20
2022-10-13T08:32:41.630Z,14.20
2022-10-13T08:35:12.513Z,14.20
2022-10-13T08:37:43.524Z,14.30
2022-10-13T08:40:20.557Z,14.30
2022-10-13T08:42:53.627Z,14.30
2022-10-13T08:45:46.150Z,14.30
2022-10-13T08:48:43.558Z,14.30
2022-10-13T08:51:16.341Z,14.60
2022-10-13T08:53:48.938Z,14.60
2022-10-13T08:56:27.992Z,14.70
2022-10-13T08:58:59.096Z,14.70
2022-10-13T09:01:36.108Z,14.80
2022-10-13T09:04:33.356Z,14.90
2022-10-13T09:07:16.428Z,15.00
2022-10-13T09:09:52.445Z,15.00
2022-10-13T09:12:25.094Z,15.00
2022-10-13T09:15:09.780Z,15.20
2022-10-13T09:17:41.916Z,15.20
2022-10-13T09:20:29.231Z,15.20
2022-10-13T09:23:18.974Z,15.40
2022-10-13T09:25:52.505Z,15.40
2022-10-13T09:28:30.605Z,15.40
2022-10-13T09:31:28.995Z,15.40
2022-10-13T09:34:23.756Z,15.60
2022-10-13T09:37:06.710Z,15.60
2022-10-13T09:39:37.605Z,15.60
2022-10-13T09:42:27.390Z,15.70
2022-10-13T09:45:16.160Z,15.70
2022-10-13T09:47:53.988Z,15.70
2022-10-13T09:50:31.949Z,15.80
2022-10-13T09:53:21.479Z,15.60
2022-10-13T09:56:28.288Z,15.80
2022-10-13T09:59:27.421Z,15.90
2022-10-13T10:02:01.635Z,16.10
2022-10-13T10:04:37.939Z,16.20
2022-10-13T10:07:22.203Z,16.20
2022-10-13T10:10:27.454Z,16.30
2022-10-13T10:12:58.446Z,16.30
2022-10-13T10:16:04.807Z,16.40
2022-10-13T10:19:04.003Z,16.60
2022-10-13T10:22:00.654Z,16.50
2022-10-13T10:25:09.722Z,16.50
2022-10-13T10:27:46.152Z,16.50
2022-10-13T10:30:20.531Z,16.50
2022-10-13T10:32:57.022Z,16.30
2022-10-13T10:36:18.209Z,16.30
2022-10-13T10:39:29.765Z,16.40
2022-10-13T10:42:26.767Z,16.50
2022-10-13T10:44:58.893Z,16.60
2022-10-13T10:47:43.405Z,16.70
2022-10-13T10:50:17.745Z,16.70
2022-10-13T10:52:56.222Z,16.50
2022-10-13T10:55:53.682Z,16.60
2022-10-13T10:58:43.063Z,16.50
2022-10-13T11:01:46.932Z,16.70
2022-10-13T11:04:20.940Z,16.80
2022-10-13T11:06:51.823Z,16.90
2022-10-13T11:09:41.534Z,16.90
2022-10-13T11:12:21.798Z,16.90
2022-10-13T11:15:21.498Z,17.00
2022-10-13T11:17:52.714Z,17.00
2022-10-13T11:20:26.434Z,17.00
2022-10-13T11:23:00.387Z,17.10
2022-10-13T11:25:48.815Z,17.10
2022-10-13T11:28:22.909Z,17.20
2022-10-13T11:30:55.349Z,17.20
2022-10-13T11:33:39.151Z,17.20
2022-10-13T11:36:37.334Z,17.30
2022-10-13T11:42:44.136Z,17.20
2022-10-13T11:45:49.105Z,17.40
2022-10-13T11:48:43.807Z,17.50
2022-10-13T11:51:31.180Z,17.50
2022-10-13T11:54:20.621Z,17.50
2022-10-13T11:56:55.259Z,17.60
2022-10-13T11:59:37.573Z,17.60
2022-10-13T12:02:11.401Z,17.50
2022-10-13T12:04:46.699Z,17.60
2022-10-13T12:07:22.018Z,17.50
2022-10-13T12:09:57.128Z,17.70
2022-10-13T12:12:28.159Z,17.70
2022-10-13T12:15:02.576Z,17.90
2022-10-13T12:17:38.967Z,18.00
2022-10-13T12:20:27.623Z,18.00
2022-10-13T12:22:59.081Z,18.20
2022-10-13T12:25:31.192Z,18.20
2022-10-13T12:28:02.685Z,18.20
2022-10-13T12:30:37.077Z,18.30
2022-10-13T12:33:43.661Z,18.10
2022-10-13T12:36:18.899Z,18.20
2022-10-13T12:38:52.970Z,18.30
2022-10-13T12:41:29.943Z,18.30
2022-10-13T12:44:04.081Z,18.50
2022-10-13T12:46:52.211Z,18.60
2022-10-13T12:49:29.617Z,18.80
2022-10-13T12:52:11.756Z,19.10
2022-10-13T12:54:56.299Z,19.30
2022-10-13T12:57:36.093Z,19.40
2022-10-13T13:00:19.753Z,19.30
2022-10-13T13:02:54.800Z,19.40
2022-10-13T13:05:40.704Z,19.30
2022-10-13T13:08:31.766Z,19.20
2022-10-13T13:11:21.389Z,19.20
2022-10-13T13:13:52.446Z,19.30
2022-10-13T13:16:24.055Z,19.40
2022-10-13T13:18:54.958Z,19.40
2022-10-13T13:21:25.841Z,19.40
2022-10-13T13:23:56.828Z,19.20
2022-10-13T13:26:28.132Z,19.10
2022-10-13T13:28:59.664Z,19.00
2022-10-13T13:31:30.513Z,19.10
2022-10-13T13:34:01.490Z,19.10
2022-10-13T13:36:32.488Z,18.90
2022-10-13T13:39:06.068Z,18.90
2022-10-13T13:41:37.173Z,18.90
2022-10-13T13:44:08.118Z,18.70
2022-10-13T13:46:39.109Z,18.80
2022-10-13T13:49:12.051Z,18.80
2022-10-13T13:51:42.948Z,18.80
2022-10-13T13:54:13.857Z,18.80
2022-10-13T13:56:44.760Z,18.80
2022-10-13T13:59:15.648Z,18.70
2022-10-13T14:01:46.582Z,18.80
2022-10-13T14:04:17.528Z,18.80
2022-10-13T14:06:48.391Z,18.80
2022-10-13T14:09:19.547Z,18.60
2022-10-13T14:11:50.414Z,18.60
2022-10-13T14:14:21.410Z,18.50
2022-10-13T14:16:53.027Z,18.60
2022-10-13T14:19:24.247Z,18.50
2022-10-13T14:21:55.219Z,18.50
2022-10-13T14:24:26.100Z,18.50
2022-10-13T14:26:57.063Z,18.50
2022-10-13T14:29:28.049Z,18.50
2022-10-13T14:31:58.972Z,18.40
2022-10-13T14:34:30.330Z,18.50
2022-10-13T14:37:01.402Z,18.40
2022-10-13T14:39:32.269Z,18.50
2022-10-13T14:42:03.267Z,18.50
2022-10-13T14:44:34.203Z,18.50
2022-10-13T14:47:05.238Z,18.50
2022-10-13T14:49:36.137Z,18.40
2022-10-13T14:52:07.768Z,18.30
2022-10-13T14:54:43.802Z,18.30
2022-10-13T14:57:16.080Z,18.30
2022-10-13T14:59:47.674Z,18.20
2022-10-13T15:02:18.589Z,18.30
2022-10-13T15:04:49.444Z,18.10
2022-10-13T15:07:20.621Z,17.80
2022-10-13T15:10:04.250Z,17.70
2022-10-13T15:12:36.762Z,17.60
2022-10-13T15:15:08.320Z,17.60
2022-10-13T15:17:39.391Z,17.40
2022-10-13T15:20:13.545Z,17.30
2022-10-13T15:22:44.474Z,17.30
2022-10-13T15:25:15.460Z,17.30
2022-10-13T15:27:46.356Z,17.30
2022-10-13T15:30:17.286Z,17.30
2022-10-13T15:32:50.604Z,17.30
2022-10-13T15:35:21.517Z,17.30
2022-10-13T15:37:52.403Z,17.30
2022-10-13T15:40:23.256Z,17.20
2022-10-13T15:42:54.181Z,17.10
2022-10-13T15:45:25.110Z,17.10
2022-10-13T15:47:57.669Z,17.10
2022-10-13T15:50:29.105Z,17.00
2022-10-13T15:53:00.188Z,17.00
2022-10-13T15:55:32.174Z,17.00
2022-10-13T15:58:03.075Z,17.00
2022-10-13T16:00:34.056Z,17.20
2022-10-13T16:03:05.670Z,17.30
2022-10-13T16:05:42.382Z,17.20
2022-10-13T16:08:14.040Z,17.20
2022-10-13T16:10:44.920Z,17.00
2022-10-13T16:13:15.875Z,17.00
2022-10-13T16:15:58.116Z,16.90
2022-10-13T16:18:35.397Z,16.90
2022-10-13T16:21:26.060Z,16.80
2022-10-13T16:23:57.011Z,16.70
2022-10-13T16:26:28.222Z,16.70
2022-10-13T16:28:59.196Z,16.60
2022-10-13T16:31:30.684Z,16.60
2022-10-13T16:34:01.569Z,16.70
2022-10-13T16:36:32.663Z,16.70
2022-10-13T16:39:03.605Z,16.70
2022-10-13T16:41:34.548Z,16.50
2022-10-13T16:44:05.696Z,16.50
2022-10-13T16:46:36.580Z,16.40
2022-10-13T16:49:07.706Z,16.40
2022-10-13T16:51:38.904Z,16.30
2022-10-13T16:54:09.775Z,16.30
2022-10-13T16:56:40.678Z,16.20
2022-10-13T16:59:11.665Z,16.20
2022-10-13T17:01:42.626Z,16.20
2022-10-13T17:04:14.799Z,16.10
2022-10-13T17:06:47.397Z,16.00
2022-10-13T17:09:18.378Z,16.00
2022-10-13T17:11:49.385Z,15.90
2022-10-13T17:14:20.497Z,15.80
2022-10-13T17:16:55.357Z,15.90
2022-10-13T17:19:28.511Z,15.90
2022-10-13T17:21:59.411Z,15.80
2022-10-13T17:24:30.643Z,15.90
2022-10-13T17:27:01.626Z,15.80
2022-10-13T17:29:32.760Z,15.80
2022-10-13T17:32:03.735Z,15.80
2022-10-13T17:34:36.456Z,15.70
2022-10-13T17:37:07.364Z,15.70
2022-10-13T17:39:40.089Z,15.70
2022-10-13T17:42:11.054Z,15.70
2022-10-13T17:44:43.110Z,15.60
2022-10-13T17:47:14.008Z,15.60
2022-10-13T17:49:44.857Z,15.60
2022-10-13T17:52:15.841Z,15.60
2022-10-13T17:54:46.692Z,15.60
2022-10-13T17:57:17.977Z,15.60
2022-10-13T17:59:49.037Z,15.50
2022-10-13T18:02:21.619Z,15.50
2022-10-13T18:04:52.502Z,15.50
2022-10-13T18:07:23.579Z,15.50
2022-10-13T18:09:54.799Z,15.50
2022-10-13T18:12:25.696Z,15.50
2022-10-13T18:14:56.614Z,15.50
2022-10-13T18:17:27.747Z,15.50
2022-10-13T18:19:58.706Z,15.50
2022-10-13T18:22:29.633Z,15.50
2022-10-13T18:25:00.507Z,15.40
2022-10-13T18:27:31.818Z,15.40
2022-10-13T18:30:02.820Z,15.40
2022-10-13T18:32:34.165Z,15.40
2022-10-13T18:35:05.622Z,15.50
2022-10-13T18:37:37.255Z,15.50
2022-10-13T18:40:08.934Z,15.50
2022-10-13T18:42:43.352Z,15.50
2022-10-13T18:45:16.805Z,15.50
2022-10-13T18:47:51.537Z,15.60
2022-10-13T18:50:22.441Z,15.60
2022-10-13T18:52:53.351Z,15.70
2022-10-13T18:55:24.245Z,15.70
2022-10-13T18:57:55.950Z,15.60
2022-10-13T19:00:26.956Z,15.60
2022-10-13T19:02:57.980Z,15.50
2022-10-13T19:05:28.947Z,15.50
2022-10-13T19:07:59.836Z,15.40
2022-10-13T19:10:30.764Z,15.30
2022-10-13T19:13:01.634Z,15.30
2022-10-13T19:15:32.570Z,15.30
2022-10-13T19:18:04.260Z,15.30
2022-10-13T19:20:35.755Z,15.20
2022-10-13T19:23:06.968Z,15.20
2022-10-13T19:25:43.037Z,15.20
2022-10-13T19:28:14.386Z,15.20
2022-10-13T19:30:45.345Z,15.30
2022-10-13T19:33:18.308Z,15.30
2022-10-13T19:35:54.061Z,15.30
2022-10-13T19:38:25.027Z,15.30
2022-10-13T19:41:03.759Z,15.20
2022-10-13T19:43:34.747Z,15.20
2022-10-13T19:46:09.293Z,15.20
2022-10-13T19:48:40.374Z,15.20
2022-10-13T19:51:11.946Z,15.20
2022-10-13T19:53:42.877Z,15.20
2022-10-13T19:56:26.725Z,15.20
2022-10-13T19:58:58.728Z,15.10
2022-10-13T20:01:29.694Z,15.10
2022-10-13T20:04:00.535Z,15.10
2022-10-13T20:06:31.436Z,15.10
2022-10-13T20:09:03.036Z,15.10
2022-10-13T20:11:34.034Z,15.10
2022-10-13T20:14:04.925Z,15.10
2022-10-13T20:16:37.850Z,15.10
2022-10-13T20:19:12.490Z,15.20
2022-10-13T20:21:43.583Z,15.20
2022-10-13T20:24:14.471Z,15.10
2022-10-13T20:26:45.346Z,15.10
2022-10-13T20:29:17.123Z,15.10
2022-10-13T20:31:48.052Z,15.10
2022-10-13T20:34:18.941Z,15.10
2022-10-13T20:36:51.262Z,15.10
2022-10-13T20:39:22.179Z,15.00
2022-10-13T20:41:53.116Z,14.90
2022-10-13T20:44:24.012Z,14.90
2022-10-13T20:46:54.912Z,14.80
2022-10-13T20:49:25.799Z,14.80
2022-10-13T20:51:56.714Z,14.80
2022-10-13T20:54:27.567Z,14.80
2022-10-13T20:56:59.088Z,14.80
2022-10-13T20:59:29.974Z,14.70
2022-10-13T21:02:00.860Z,14.70
2022-10-13T21:04:31.827Z,14.70
2022-10-13T21:07:02.789Z,14.60
2022-10-13T21:09:36.182Z,14.60
2022-10-13T21:12:07.426Z,14.60
2022-10-13T21:14:38.329Z,14.60
2022-10-13T21:17:09.203Z,14.50
2022-10-13T21:19:40.078Z,14.50
2022-10-13T21:22:11.187Z,14.60
2022-10-13T21:24:42.095Z,14.60
2022-10-13T21:27:13.004Z,14.60
2022-10-13T21:29:43.865Z,14.60
2022-10-13T21:32:14.793Z,14.60
2022-10-13T21:34:48.339Z,14.50
2022-10-13T21:37:19.611Z,14.40
2022-10-13T21:39:50.668Z,14.40
2022-10-13T21:42:21.563Z,14.40
2022-10-13T21:44:52.425Z,14.30
2022-10-13T21:47:24.098Z,14.30
2022-10-13T21:49:54.983Z,14.30
2022-10-13T21:52:26.970Z,14.30
2022-10-13T21:54:57.841Z,14.30
2022-10-13T21:57:29.047Z,14.30
2022-10-13T22:00:00.004Z,14.30
2022-10-13T22:02:30.903Z,14.30
2022-10-13T22:05:01.846Z,14.30
2022-10-13T22:07:32.928Z,14.30
2022-10-13T22:10:04.477Z,14.40
2022-10-13T22:12:35.381Z,14.40
2022-10-13T22:15:07.001Z,14.30
2022-10-13T22:17:37.942Z,14.40
2022-10-13T22:20:09.341Z,14.40
2022-10-13T22:22:40.259Z,14.30
2022-10-13T22:25:11.145Z,14.30
2022-10-13T22:27:42.058Z,14.30
2022-10-13T22:30:13.158Z,14.30
2022-10-13T22:32:44.120Z,14.30
2022-10-13T22:35:15.064Z,14.40
2022-10-13T22:37:45.950Z,14.30
2022-10-13T22:40:16.974Z,14.30
2022-10-13T22:42:49.402Z,14.30
2022-10-13T22:45:20.349Z,14.30
2022-10-13T22:47:51.909Z,14.30
2022-10-13T22:50:22.765Z,14.30
2022-10-13T22:52:53.748Z,14.30
2022-10-13T22:55:24.613Z,14.30
2022-10-13T22:57:55.520Z,14.30
2022-10-13T23:00:26.459Z,14.20
2022-10-13T23:02:57.332Z,14.20
2022-10-13T23:05:28.207Z,14.20
2022-10-13T23:07:59.173Z,14.20
2022-10-13T23:10:30.051Z,14.20
2022-10-13T23:13:00.948Z,14.20
2022-10-13T23:15:32.649Z,14.20
2022-10-13T23:18:03.600Z,14.20
2022-10-13T23:20:34.555Z,14.20
2022-10-13T23:23:05.445Z,14.20
2022-10-13T23:25:39.173Z,14.20
2022-10-13T23:28:10.067Z,14.20
2022-10-13T23:30:40.959Z,14.20
2022-10-13T23:33:11.967Z,14.20
2022-10-13T23:35:42.811Z,14.20
2022-10-13T23:38:13.721Z,14.20
2022-10-13T23:40:44.648Z,14.20
2022-10-13T23:43:15.705Z,14.20
2022-10-13T23:45:46.671Z,14.20
2022-10-13T23:48:17.545Z,14.20
2022-10-13T23:50:48.394Z,14.20
2022-10-13T23:53:19.409Z,14.20
2022-10-13T23:55:50.307Z,14.20
2022-10-13T23:58:21.196Z,14.20
